sensor_id;sensor_type;location;lat;lon;timestamp;P1;durP1;ratioP1;P2;durP2;ratioP2
19492;SDS011;9887;54.366;10.958;2022-08-01T00:00:52;28.35;;;15.70;;
19492;SDS011;9887;54.366;10.958;2022-08-01T00:03:20;25.13;;;16.13;;
19492;SDS011;9887;54.366;10.958;2022-08-01T00:05:49;26.92;;;17.27;;
19492;SDS011;9887;54.366;10.958;2022-08-01T00:08:17;20.92;;;15.52;;
19492;SDS011;9887;54.366;10.958;2022-08-01T00:10:45;21.70;;;15.48;;
19492;SDS011;9887;54.366;10.958;2022-08-01T00:13:13;27.20;;;15.80;;
19492;SDS011;9887;54.366;10.958;2022-08-01T00:15:41;27.67;;;15.43;;
19492;SDS011;9887;54.366;10.958;2022-08-01T00:18:19;23.13;;;14.85;;
19492;SDS011;9887;54.366;10.958;2022-08-01T00:20:47;24.02;;;15.13;;
19492;SDS011;9887;54.366;10.958;2022-08-01T00:23:17;24.58;;;14.73;;
19492;SDS011;9887;54.366;10.958;2022-08-01T00:25:45;24.33;;;14.57;;
19492;SDS011;9887;54.366;10.958;2022-08-01T00:28:12;22.25;;;14.18;;
19492;SDS011;9887;54.366;10.958;2022-08-01T00:30:40;24.08;;;14.63;;
19492;SDS011;9887;54.366;10.958;2022-08-01T00:33:08;26.63;;;13.90;;
19492;SDS011;9887;54.366;10.958;2022-08-01T00:35:36;23.48;;;12.68;;
19492;SDS011;9887;54.366;10.958;2022-08-01T00:38:05;19.48;;;12.63;;
19492;SDS011;9887;54.366;10.958;2022-08-01T00:40:33;20.15;;;11.40;;
19492;SDS011;9887;54.366;10.958;2022-08-01T00:43:01;17.75;;;10.98;;
19492;SDS011;9887;54.366;10.958;2022-08-01T00:45:29;23.90;;;11.48;;
19492;SDS011;9887;54.366;10.958;2022-08-01T00:47:57;16.67;;;10.95;;
19492;SDS011;9887;54.366;10.958;2022-08-01T00:50:25;17.80;;;10.65;;
19492;SDS011;9887;54.366;10.958;2022-08-01T00:52:53;18.65;;;9.98;;
19492;SDS011;9887;54.366;10.958;2022-08-01T00:55:23;11.57;;;8.10;;
19492;SDS011;9887;54.366;10.958;2022-08-01T00:57:51;14.57;;;8.70;;
19492;SDS011;9887;54.366;10.958;2022-08-01T01:00:31;20.42;;;8.93;;
19492;SDS011;9887;54.366;10.958;2022-08-01T01:03:18;14.63;;;8.40;;
19492;SDS011;9887;54.366;10.958;2022-08-01T01:05:56;16.08;;;7.82;;
19492;SDS011;9887;54.366;10.958;2022-08-01T01:08:38;14.18;;;6.72;;
19492;SDS011;9887;54.366;10.958;2022-08-01T01:11:10;11.43;;;7.30;;
19492;SDS011;9887;54.366;10.958;2022-08-01T01:13:45;12.65;;;7.60;;
19492;SDS011;9887;54.366;10.958;2022-08-01T01:16:19;11.75;;;8.40;;
19492;SDS011;9887;54.366;10.958;2022-08-01T01:18:49;14.85;;;8.52;;
19492;SDS011;9887;54.366;10.958;2022-08-01T01:21:43;13.98;;;8.85;;
19492;SDS011;9887;54.366;10.958;2022-08-01T01:24:28;12.98;;;10.38;;
19492;SDS011;9887;54.366;10.958;2022-08-01T01:27:05;16.13;;;9.48;;
19492;SDS011;9887;54.366;10.958;2022-08-01T01:29:44;13.90;;;9.20;;
19492;SDS011;9887;54.366;10.958;2022-08-01T01:32:27;15.00;;;9.43;;
19492;SDS011;9887;54.366;10.958;2022-08-01T01:35:00;11.55;;;8.98;;
19492;SDS011;9887;54.366;10.958;2022-08-01T01:37:30;16.77;;;8.93;;
19492;SDS011;9887;54.366;10.958;2022-08-01T01:40:01;19.42;;;9.35;;
19492;SDS011;9887;54.366;10.958;2022-08-01T01:42:31;17.05;;;9.68;;
19492;SDS011;9887;54.366;10.958;2022-08-01T01:45:02;17.98;;;10.30;;
19492;SDS011;9887;54.366;10.958;2022-08-01T01:47:32;13.48;;;9.68;;
19492;SDS011;9887;54.366;10.958;2022-08-01T01:50:02;15.73;;;9.88;;
19492;SDS011;9887;54.366;10.958;2022-08-01T01:52:31;15.15;;;10.23;;
19492;SDS011;9887;54.366;10.958;2022-08-01T01:54:59;12.32;;;10.15;;
19492;SDS011;9887;54.366;10.958;2022-08-01T01:57:31;12.05;;;10.13;;
19492;SDS011;9887;54.366;10.958;2022-08-01T02:00:04;15.10;;;10.65;;
19492;SDS011;9887;54.366;10.958;2022-08-01T02:02:34;13.70;;;10.95;;
19492;SDS011;9887;54.366;10.958;2022-08-01T02:05:04;15.35;;;10.55;;
19492;SDS011;9887;54.366;10.958;2022-08-01T02:07:33;13.43;;;9.55;;
19492;SDS011;9887;54.366;10.958;2022-08-01T02:10:03;17.42;;;11.82;;
19492;SDS011;9887;54.366;10.958;2022-08-01T02:12:35;13.45;;;8.82;;
19492;SDS011;9887;54.366;10.958;2022-08-01T02:15:08;19.90;;;9.10;;
19492;SDS011;9887;54.366;10.958;2022-08-01T02:17:47;13.82;;;8.65;;
19492;SDS011;9887;54.366;10.958;2022-08-01T02:20:16;18.08;;;8.55;;
19492;SDS011;9887;54.366;10.958;2022-08-01T02:22:46;14.10;;;8.82;;
19492;SDS011;9887;54.366;10.958;2022-08-01T02:25:19;15.50;;;7.95;;
19492;SDS011;9887;54.366;10.958;2022-08-01T02:27:53;12.65;;;7.85;;
19492;SDS011;9887;54.366;10.958;2022-08-01T02:30:28;14.43;;;6.43;;
19492;SDS011;9887;54.366;10.958;2022-08-01T02:33:02;12.25;;;6.28;;
19492;SDS011;9887;54.366;10.958;2022-08-01T02:35:41;13.13;;;6.47;;
19492;SDS011;9887;54.366;10.958;2022-08-01T02:38:31;14.25;;;6.05;;
19492;SDS011;9887;54.366;10.958;2022-08-01T02:41:03;14.40;;;6.55;;
19492;SDS011;9887;54.366;10.958;2022-08-01T02:43:34;17.70;;;6.93;;
19492;SDS011;9887;54.366;10.958;2022-08-01T02:46:06;14.13;;;7.95;;
19492;SDS011;9887;54.366;10.958;2022-08-01T02:48:37;12.32;;;6.07;;
19492;SDS011;9887;54.366;10.958;2022-08-01T02:51:07;10.13;;;5.47;;
19492;SDS011;9887;54.366;10.958;2022-08-01T02:53:38;10.00;;;6.20;;
19492;SDS011;9887;54.366;10.958;2022-08-01T02:56:09;17.15;;;7.28;;
19492;SDS011;9887;54.366;10.958;2022-08-01T02:58:38;10.00;;;6.97;;
19492;SDS011;9887;54.366;10.958;2022-08-01T03:01:09;14.40;;;7.32;;
19492;SDS011;9887;54.366;10.958;2022-08-01T03:03:37;13.02;;;7.90;;
19492;SDS011;9887;54.366;10.958;2022-08-01T03:06:05;19.30;;;8.00;;
19492;SDS011;9887;54.366;10.958;2022-08-01T03:08:35;9.10;;;6.20;;
19492;SDS011;9887;54.366;10.958;2022-08-01T03:11:04;8.00;;;5.68;;
19492;SDS011;9887;54.366;10.958;2022-08-01T03:13:35;7.50;;;5.18;;
19492;SDS011;9887;54.366;10.958;2022-08-01T03:16:05;7.78;;;5.15;;
19492;SDS011;9887;54.366;10.958;2022-08-01T03:18:35;7.70;;;4.82;;
19492;SDS011;9887;54.366;10.958;2022-08-01T03:21:05;9.63;;;4.70;;
19492;SDS011;9887;54.366;10.958;2022-08-01T03:23:36;8.10;;;5.63;;
19492;SDS011;9887;54.366;10.958;2022-08-01T03:26:05;10.20;;;6.43;;
19492;SDS011;9887;54.366;10.958;2022-08-01T03:28:33;10.13;;;6.72;;
19492;SDS011;9887;54.366;10.958;2022-08-01T03:31:02;9.63;;;7.40;;
19492;SDS011;9887;54.366;10.958;2022-08-01T03:33:30;11.93;;;7.85;;
19492;SDS011;9887;54.366;10.958;2022-08-01T03:36:00;11.05;;;8.57;;
19492;SDS011;9887;54.366;10.958;2022-08-01T03:38:29;18.65;;;11.40;;
19492;SDS011;9887;54.366;10.958;2022-08-01T03:41:02;12.63;;;9.20;;
19492;SDS011;9887;54.366;10.958;2022-08-01T03:43:37;12.13;;;9.38;;
19492;SDS011;9887;54.366;10.958;2022-08-01T03:46:09;12.10;;;9.00;;
19492;SDS011;9887;54.366;10.958;2022-08-01T03:48:41;12.23;;;8.80;;
19492;SDS011;9887;54.366;10.958;2022-08-01T03:51:14;10.05;;;7.78;;
19492;SDS011;9887;54.366;10.958;2022-08-01T03:53:42;13.40;;;8.02;;
19492;SDS011;9887;54.366;10.958;2022-08-01T03:56:12;14.18;;;7.45;;
19492;SDS011;9887;54.366;10.958;2022-08-01T03:58:45;11.43;;;7.43;;
19492;SDS011;9887;54.366;10.958;2022-08-01T04:01:15;11.38;;;7.75;;
19492;SDS011;9887;54.366;10.958;2022-08-01T04:03:45;13.73;;;7.93;;
19492;SDS011;9887;54.366;10.958;2022-08-01T04:06:14;16.25;;;7.25;;
19492;SDS011;9887;54.366;10.958;2022-08-01T04:08:43;12.57;;;6.82;;
19492;SDS011;9887;54.366;10.958;2022-08-01T04:11:24;10.00;;;6.68;;
19492;SDS011;9887;54.366;10.958;2022-08-01T04:13:54;9.70;;;6.25;;
19492;SDS011;9887;54.366;10.958;2022-08-01T04:16:23;9.65;;;5.55;;
19492;SDS011;9887;54.366;10.958;2022-08-01T04:18:51;8.73;;;6.32;;
19492;SDS011;9887;54.366;10.958;2022-08-01T04:21:22;8.93;;;5.65;;
19492;SDS011;9887;54.366;10.958;2022-08-01T04:23:54;9.45;;;5.88;;
19492;SDS011;9887;54.366;10.958;2022-08-01T04:26:25;13.38;;;7.20;;
19492;SDS011;9887;54.366;10.958;2022-08-01T04:28:54;9.63;;;6.45;;
19492;SDS011;9887;54.366;10.958;2022-08-01T04:31:23;10.90;;;5.80;;
19492;SDS011;9887;54.366;10.958;2022-08-01T04:33:53;10.70;;;5.25;;
19492;SDS011;9887;54.366;10.958;2022-08-01T04:36:24;10.20;;;5.25;;
19492;SDS011;9887;54.366;10.958;2022-08-01T04:38:54;7.18;;;4.93;;
19492;SDS011;9887;54.366;10.958;2022-08-01T04:41:26;6.82;;;5.07;;
19492;SDS011;9887;54.366;10.958;2022-08-01T04:43:57;8.70;;;5.32;;
19492;SDS011;9887;54.366;10.958;2022-08-01T04:46:26;8.93;;;5.45;;
19492;SDS011;9887;54.366;10.958;2022-08-01T04:48:56;8.23;;;5.07;;
19492;SDS011;9887;54.366;10.958;2022-08-01T04:51:26;6.28;;;4.95;;
19492;SDS011;9887;54.366;10.958;2022-08-01T04:53:54;6.55;;;4.38;;
19492;SDS011;9887;54.366;10.958;2022-08-01T04:56:23;7.60;;;4.97;;
19492;SDS011;9887;54.366;10.958;2022-08-01T04:58:51;7.85;;;4.30;;
19492;SDS011;9887;54.366;10.958;2022-08-01T05:01:48;6.00;;;4.43;;
19492;SDS011;9887;54.366;10.958;2022-08-01T05:04:16;8.13;;;4.63;;
19492;SDS011;9887;54.366;10.958;2022-08-01T05:06:46;10.85;;;4.75;;
19492;SDS011;9887;54.366;10.958;2022-08-01T05:09:13;10.05;;;5.13;;
19492;SDS011;9887;54.366;10.958;2022-08-01T05:11:42;7.78;;;4.35;;
19492;SDS011;9887;54.366;10.958;2022-08-01T05:14:10;6.97;;;4.50;;
19492;SDS011;9887;54.366;10.958;2022-08-01T05:16:37;8.00;;;4.18;;
19492;SDS011;9887;54.366;10.958;2022-08-01T05:19:05;8.32;;;4.40;;
19492;SDS011;9887;54.366;10.958;2022-08-01T05:21:34;7.50;;;4.78;;
19492;SDS011;9887;54.366;10.958;2022-08-01T05:24:04;6.68;;;4.38;;
19492;SDS011;9887;54.366;10.958;2022-08-01T05:26:33;6.75;;;4.10;;
19492;SDS011;9887;54.366;10.958;2022-08-01T05:29:02;7.05;;;4.00;;
19492;SDS011;9887;54.366;10.958;2022-08-01T05:31:30;8.45;;;4.47;;
19492;SDS011;9887;54.366;10.958;2022-08-01T05:34:00;7.85;;;4.50;;
19492;SDS011;9887;54.366;10.958;2022-08-01T05:36:28;8.07;;;4.40;;
19492;SDS011;9887;54.366;10.958;2022-08-01T05:38:56;10.50;;;4.20;;
19492;SDS011;9887;54.366;10.958;2022-08-01T05:41:26;6.75;;;3.90;;
19492;SDS011;9887;54.366;10.958;2022-08-01T05:43:53;9.93;;;3.60;;
19492;SDS011;9887;54.366;10.958;2022-08-01T05:46:21;9.75;;;3.85;;
19492;SDS011;9887;54.366;10.958;2022-08-01T05:48:52;6.32;;;3.75;;
19492;SDS011;9887;54.366;10.958;2022-08-01T05:51:21;8.15;;;4.32;;
19492;SDS011;9887;54.366;10.958;2022-08-01T05:53:49;5.28;;;3.78;;
19492;SDS011;9887;54.366;10.958;2022-08-01T05:56:17;11.40;;;3.85;;
19492;SDS011;9887;54.366;10.958;2022-08-01T05:58:46;6.82;;;4.38;;
19492;SDS011;9887;54.366;10.958;2022-08-01T06:01:15;6.80;;;3.60;;
19492;SDS011;9887;54.366;10.958;2022-08-01T06:03:43;8.75;;;3.67;;
19492;SDS011;9887;54.366;10.958;2022-08-01T06:06:11;6.50;;;3.90;;
19492;SDS011;9887;54.366;10.958;2022-08-01T06:08:40;7.88;;;3.55;;
19492;SDS011;9887;54.366;10.958;2022-08-01T06:11:08;8.05;;;2.92;;
19492;SDS011;9887;54.366;10.958;2022-08-01T06:13:38;3.90;;;2.60;;
19492;SDS011;9887;54.366;10.958;2022-08-01T06:16:15;5.07;;;2.35;;
19492;SDS011;9887;54.366;10.958;2022-08-01T06:18:43;5.22;;;2.60;;
19492;SDS011;9887;54.366;10.958;2022-08-01T06:21:11;3.45;;;2.13;;
19492;SDS011;9887;54.366;10.958;2022-08-01T06:23:38;4.50;;;2.00;;
19492;SDS011;9887;54.366;10.958;2022-08-01T06:26:07;7.53;;;2.28;;
19492;SDS011;9887;54.366;10.958;2022-08-01T06:28:36;3.90;;;1.83;;
19492;SDS011;9887;54.366;10.958;2022-08-01T06:31:04;4.75;;;1.88;;
19492;SDS011;9887;54.366;10.958;2022-08-01T06:33:33;6.32;;;2.15;;
19492;SDS011;9887;54.366;10.958;2022-08-01T06:36:01;5.25;;;1.92;;
19492;SDS011;9887;54.366;10.958;2022-08-01T06:38:30;6.28;;;2.20;;
19492;SDS011;9887;54.366;10.958;2022-08-01T06:40:58;5.63;;;2.22;;
19492;SDS011;9887;54.366;10.958;2022-08-01T06:43:26;5.25;;;2.08;;
19492;SDS011;9887;54.366;10.958;2022-08-01T06:45:54;6.32;;;2.60;;
19492;SDS011;9887;54.366;10.958;2022-08-01T06:48:21;5.90;;;2.60;;
19492;SDS011;9887;54.366;10.958;2022-08-01T06:50:51;3.05;;;1.90;;
19492;SDS011;9887;54.366;10.958;2022-08-01T06:53:34;2.47;;;1.67;;
19492;SDS011;9887;54.366;10.958;2022-08-01T06:56:03;4.78;;;1.63;;
19492;SDS011;9887;54.366;10.958;2022-08-01T06:58:32;3.72;;;2.10;;
19492;SDS011;9887;54.366;10.958;2022-08-01T07:01:02;5.72;;;2.03;;
19492;SDS011;9887;54.366;10.958;2022-08-01T07:03:32;8.57;;;1.70;;
19492;SDS011;9887;54.366;10.958;2022-08-01T07:06:21;4.05;;;1.67;;
19492;SDS011;9887;54.366;10.958;2022-08-01T07:08:50;3.38;;;1.85;;
19492;SDS011;9887;54.366;10.958;2022-08-01T07:11:18;3.45;;;2.08;;
19492;SDS011;9887;54.366;10.958;2022-08-01T07:13:47;5.38;;;1.83;;
19492;SDS011;9887;54.366;10.958;2022-08-01T07:16:15;5.18;;;2.53;;
19492;SDS011;9887;54.366;10.958;2022-08-01T07:18:43;4.45;;;2.13;;
19492;SDS011;9887;54.366;10.958;2022-08-01T07:21:11;3.22;;;1.92;;
19492;SDS011;9887;54.366;10.958;2022-08-01T07:24:01;3.30;;;1.80;;
19492;SDS011;9887;54.366;10.958;2022-08-01T07:26:39;4.88;;;1.75;;
19492;SDS011;9887;54.366;10.958;2022-08-01T07:29:20;5.20;;;1.92;;
19492;SDS011;9887;54.366;10.958;2022-08-01T07:31:49;5.07;;;2.25;;
19492;SDS011;9887;54.366;10.958;2022-08-01T07:34:17;4.20;;;1.95;;
19492;SDS011;9887;54.366;10.958;2022-08-01T07:36:45;7.38;;;1.95;;
19492;SDS011;9887;54.366;10.958;2022-08-01T07:39:14;6.05;;;2.05;;
19492;SDS011;9887;54.366;10.958;2022-08-01T07:41:42;7.97;;;2.03;;
19492;SDS011;9887;54.366;10.958;2022-08-01T07:44:30;8.20;;;2.25;;
19492;SDS011;9887;54.366;10.958;2022-08-01T07:46:58;7.75;;;2.63;;
19492;SDS011;9887;54.366;10.958;2022-08-01T07:49:26;6.47;;;1.83;;
19492;SDS011;9887;54.366;10.958;2022-08-01T07:51:54;5.45;;;2.15;;
19492;SDS011;9887;54.366;10.958;2022-08-01T07:54:40;5.97;;;1.88;;
19492;SDS011;9887;54.366;10.958;2022-08-01T07:57:07;5.85;;;1.83;;
19492;SDS011;9887;54.366;10.958;2022-08-01T07:59:35;7.57;;;2.45;;
19492;SDS011;9887;54.366;10.958;2022-08-01T08:02:03;5.95;;;2.15;;
19492;SDS011;9887;54.366;10.958;2022-08-01T08:04:32;5.07;;;1.77;;
19492;SDS011;9887;54.366;10.958;2022-08-01T08:07:00;7.20;;;2.30;;
19492;SDS011;9887;54.366;10.958;2022-08-01T08:09:28;7.00;;;2.05;;
19492;SDS011;9887;54.366;10.958;2022-08-01T08:12:04;8.25;;;1.90;;
19492;SDS011;9887;54.366;10.958;2022-08-01T08:14:34;4.80;;;1.88;;
19492;SDS011;9887;54.366;10.958;2022-08-01T08:17:02;7.57;;;2.08;;
19492;SDS011;9887;54.366;10.958;2022-08-01T08:19:30;8.05;;;2.35;;
19492;SDS011;9887;54.366;10.958;2022-08-01T08:22:03;7.85;;;2.10;;
19492;SDS011;9887;54.366;10.958;2022-08-01T08:24:32;13.15;;;2.50;;
19492;SDS011;9887;54.366;10.958;2022-08-01T08:27:01;7.38;;;2.22;;
19492;SDS011;9887;54.366;10.958;2022-08-01T08:29:31;6.38;;;1.92;;
19492;SDS011;9887;54.366;10.958;2022-08-01T08:31:59;7.35;;;2.20;;
19492;SDS011;9887;54.366;10.958;2022-08-01T08:34:28;8.43;;;2.22;;
19492;SDS011;9887;54.366;10.958;2022-08-01T08:36:56;6.28;;;2.00;;
19492;SDS011;9887;54.366;10.958;2022-08-01T08:39:25;8.30;;;2.17;;
19492;SDS011;9887;54.366;10.958;2022-08-01T08:41:56;10.23;;;2.83;;
19492;SDS011;9887;54.366;10.958;2022-08-01T08:44:24;8.95;;;2.22;;
19492;SDS011;9887;54.366;10.958;2022-08-01T08:46:54;8.73;;;1.90;;
19492;SDS011;9887;54.366;10.958;2022-08-01T08:49:26;11.40;;;2.80;;
19492;SDS011;9887;54.366;10.958;2022-08-01T08:52:02;9.88;;;1.90;;
19492;SDS011;9887;54.366;10.958;2022-08-01T08:54:34;11.88;;;2.05;;
19492;SDS011;9887;54.366;10.958;2022-08-01T08:57:06;8.52;;;1.83;;
19492;SDS011;9887;54.366;10.958;2022-08-01T08:59:34;8.73;;;2.10;;
19492;SDS011;9887;54.366;10.958;2022-08-01T09:02:03;10.75;;;1.55;;
19492;SDS011;9887;54.366;10.958;2022-08-01T09:04:33;14.48;;;3.55;;
19492;SDS011;9887;54.366;10.958;2022-08-01T09:07:03;9.25;;;2.35;;
19492;SDS011;9887;54.366;10.958;2022-08-01T09:09:32;12.82;;;2.60;;
19492;SDS011;9887;54.366;10.958;2022-08-01T09:12:07;9.82;;;2.35;;
19492;SDS011;9887;54.366;10.958;2022-08-01T09:14:35;16.60;;;3.05;;
19492;SDS011;9887;54.366;10.958;2022-08-01T09:17:13;11.45;;;2.60;;
19492;SDS011;9887;54.366;10.958;2022-08-01T09:19:43;12.02;;;2.22;;
19492;SDS011;9887;54.366;10.958;2022-08-01T09:22:14;11.57;;;2.30;;
19492;SDS011;9887;54.366;10.958;2022-08-01T09:24:56;10.82;;;2.00;;
19492;SDS011;9887;54.366;10.958;2022-08-01T09:27:25;12.32;;;2.30;;
19492;SDS011;9887;54.366;10.958;2022-08-01T09:29:54;14.57;;;1.92;;
19492;SDS011;9887;54.366;10.958;2022-08-01T09:32:34;14.20;;;2.05;;
19492;SDS011;9887;54.366;10.958;2022-08-01T09:38:12;11.98;;;2.15;;
19492;SDS011;9887;54.366;10.958;2022-08-01T09:40:45;10.35;;;1.73;;
19492;SDS011;9887;54.366;10.958;2022-08-01T09:43:15;8.93;;;2.00;;
19492;SDS011;9887;54.366;10.958;2022-08-01T09:45:44;12.75;;;2.90;;
19492;SDS011;9887;54.366;10.958;2022-08-01T09:48:17;10.68;;;2.10;;
19492;SDS011;9887;54.366;10.958;2022-08-01T09:50:48;10.52;;;1.98;;
19492;SDS011;9887;54.366;10.958;2022-08-01T09:53:18;12.75;;;2.30;;
19492;SDS011;9887;54.366;10.958;2022-08-01T09:56:07;8.48;;;1.92;;
19492;SDS011;9887;54.366;10.958;2022-08-01T09:58:48;13.75;;;2.60;;
19492;SDS011;9887;54.366;10.958;2022-08-01T10:01:24;15.77;;;2.97;;
19492;SDS011;9887;54.366;10.958;2022-08-01T10:04:07;10.23;;;2.17;;
19492;SDS011;9887;54.366;10.958;2022-08-01T10:06:37;8.95;;;2.00;;
19492;SDS011;9887;54.366;10.958;2022-08-01T10:09:07;10.82;;;2.28;;
19492;SDS011;9887;54.366;10.958;2022-08-01T10:11:35;8.73;;;1.98;;
19492;SDS011;9887;54.366;10.958;2022-08-01T10:14:06;10.55;;;2.15;;
19492;SDS011;9887;54.366;10.958;2022-08-01T10:16:35;11.07;;;2.03;;
19492;SDS011;9887;54.366;10.958;2022-08-01T10:19:05;8.25;;;1.90;;
19492;SDS011;9887;54.366;10.958;2022-08-01T10:21:40;11.10;;;2.38;;
19492;SDS011;9887;54.366;10.958;2022-08-01T10:24:24;16.77;;;2.88;;
19492;SDS011;9887;54.366;10.958;2022-08-01T10:26:56;5.70;;;1.73;;
19492;SDS011;9887;54.366;10.958;2022-08-01T10:29:41;13.13;;;2.20;;
19492;SDS011;9887;54.366;10.958;2022-08-01T10:32:34;11.00;;;2.15;;
19492;SDS011;9887;54.366;10.958;2022-08-01T10:35:07;9.70;;;1.67;;
19492;SDS011;9887;54.366;10.958;2022-08-01T10:37:40;10.05;;;1.60;;
19492;SDS011;9887;54.366;10.958;2022-08-01T10:40:18;10.05;;;1.85;;
19492;SDS011;9887;54.366;10.958;2022-08-01T10:42:56;7.15;;;1.63;;
19492;SDS011;9887;54.366;10.958;2022-08-01T10:45:25;9.63;;;1.92;;
19492;SDS011;9887;54.366;10.958;2022-08-01T10:47:57;8.20;;;2.15;;
19492;SDS011;9887;54.366;10.958;2022-08-01T10:50:34;9.25;;;1.80;;
19492;SDS011;9887;54.366;10.958;2022-08-01T10:53:12;7.97;;;1.73;;
19492;SDS011;9887;54.366;10.958;2022-08-01T10:56:00;6.65;;;1.73;;
19492;SDS011;9887;54.366;10.958;2022-08-01T10:58:29;10.32;;;2.08;;
19492;SDS011;9887;54.366;10.958;2022-08-01T11:01:15;6.25;;;1.80;;
19492;SDS011;9887;54.366;10.958;2022-08-01T11:03:55;8.35;;;1.60;;
19492;SDS011;9887;54.366;10.958;2022-08-01T11:06:37;10.20;;;2.67;;
19492;SDS011;9887;54.366;10.958;2022-08-01T11:09:19;10.13;;;1.45;;
19492;SDS011;9887;54.366;10.958;2022-08-01T11:12:04;8.48;;;1.80;;
19492;SDS011;9887;54.366;10.958;2022-08-01T11:17:56;10.57;;;1.42;;
19492;SDS011;9887;54.366;10.958;2022-08-01T11:20:26;12.55;;;1.95;;
19492;SDS011;9887;54.366;10.958;2022-08-01T11:26:08;9.20;;;2.17;;
19492;SDS011;9887;54.366;10.958;2022-08-01T11:28:38;10.30;;;1.77;;
19492;SDS011;9887;54.366;10.958;2022-08-01T11:31:28;5.95;;;1.85;;
19492;SDS011;9887;54.366;10.958;2022-08-01T11:34:03;8.48;;;1.98;;
19492;SDS011;9887;54.366;10.958;2022-08-01T11:36:31;4.75;;;1.15;;
19492;SDS011;9887;54.366;10.958;2022-08-01T11:39:20;10.35;;;1.52;;
19492;SDS011;9887;54.366;10.958;2022-08-01T11:41:49;5.97;;;1.40;;
19492;SDS011;9887;54.366;10.958;2022-08-01T11:44:20;9.52;;;1.70;;
19492;SDS011;9887;54.366;10.958;2022-08-01T11:46:56;7.50;;;1.50;;
19492;SDS011;9887;54.366;10.958;2022-08-01T11:49:34;11.73;;;1.85;;
19492;SDS011;9887;54.366;10.958;2022-08-01T11:52:26;9.30;;;1.60;;
19492;SDS011;9887;54.366;10.958;2022-08-01T11:54:57;6.13;;;1.40;;
19492;SDS011;9887;54.366;10.958;2022-08-01T11:57:36;7.43;;;1.52;;
19492;SDS011;9887;54.366;10.958;2022-08-01T12:00:09;8.75;;;1.35;;
19492;SDS011;9887;54.366;10.958;2022-08-01T12:02:42;4.20;;;1.10;;
19492;SDS011;9887;54.366;10.958;2022-08-01T12:05:11;9.80;;;1.85;;
19492;SDS011;9887;54.366;10.958;2022-08-01T12:07:41;5.38;;;1.48;;
19492;SDS011;9887;54.366;10.958;2022-08-01T12:10:12;5.45;;;1.30;;
19492;SDS011;9887;54.366;10.958;2022-08-01T12:12:42;4.50;;;1.40;;
19492;SDS011;9887;54.366;10.958;2022-08-01T12:15:11;9.65;;;1.60;;
19492;SDS011;9887;54.366;10.958;2022-08-01T12:17:41;9.00;;;1.25;;
19492;SDS011;9887;54.366;10.958;2022-08-01T12:20:24;6.05;;;1.65;;
19492;SDS011;9887;54.366;10.958;2022-08-01T12:22:56;5.85;;;1.48;;
19492;SDS011;9887;54.366;10.958;2022-08-01T12:25:26;7.35;;;1.40;;
19492;SDS011;9887;54.366;10.958;2022-08-01T12:27:54;6.95;;;1.48;;
19492;SDS011;9887;54.366;10.958;2022-08-01T12:30:23;7.45;;;1.27;;
19492;SDS011;9887;54.366;10.958;2022-08-01T12:32:53;6.25;;;1.30;;
19492;SDS011;9887;54.366;10.958;2022-08-01T12:35:21;6.45;;;1.42;;
19492;SDS011;9887;54.366;10.958;2022-08-01T12:37:51;7.95;;;1.50;;
19492;SDS011;9887;54.366;10.958;2022-08-01T12:40:21;7.32;;;1.48;;
19492;SDS011;9887;54.366;10.958;2022-08-01T12:42:53;5.47;;;0.95;;
19492;SDS011;9887;54.366;10.958;2022-08-01T12:45:25;6.88;;;1.58;;
19492;SDS011;9887;54.366;10.958;2022-08-01T12:47:54;6.88;;;1.25;;
19492;SDS011;9887;54.366;10.958;2022-08-01T12:50:24;6.47;;;1.30;;
19492;SDS011;9887;54.366;10.958;2022-08-01T12:52:56;7.18;;;1.73;;
19492;SDS011;9887;54.366;10.958;2022-08-01T12:55:25;5.55;;;1.50;;
19492;SDS011;9887;54.366;10.958;2022-08-01T12:58:04;5.00;;;1.52;;
19492;SDS011;9887;54.366;10.958;2022-08-01T13:00:41;10.45;;;1.65;;
19492;SDS011;9887;54.366;10.958;2022-08-01T13:03:11;6.32;;;1.17;;
19492;SDS011;9887;54.366;10.958;2022-08-01T13:05:44;7.35;;;1.25;;
19492;SDS011;9887;54.366;10.958;2022-08-01T13:08:15;8.68;;;1.73;;
19492;SDS011;9887;54.366;10.958;2022-08-01T13:10:44;8.48;;;1.40;;
19492;SDS011;9887;54.366;10.958;2022-08-01T13:13:14;5.13;;;1.23;;
19492;SDS011;9887;54.366;10.958;2022-08-01T13:16:02;6.97;;;1.10;;
19492;SDS011;9887;54.366;10.958;2022-08-01T13:18:32;8.25;;;1.30;;
19492;SDS011;9887;54.366;10.958;2022-08-01T13:21:08;7.15;;;1.30;;
19492;SDS011;9887;54.366;10.958;2022-08-01T13:23:38;8.60;;;1.55;;
19492;SDS011;9887;54.366;10.958;2022-08-01T13:26:39;8.07;;;1.42;;
19492;SDS011;9887;54.366;10.958;2022-08-01T13:29:10;7.35;;;1.25;;
19492;SDS011;9887;54.366;10.958;2022-08-01T13:31:39;6.68;;;1.75;;
19492;SDS011;9887;54.366;10.958;2022-08-01T13:34:08;6.93;;;1.30;;
19492;SDS011;9887;54.366;10.958;2022-08-01T13:36:37;5.85;;;1.45;;
19492;SDS011;9887;54.366;10.958;2022-08-01T13:39:13;6.30;;;1.40;;
19492;SDS011;9887;54.366;10.958;2022-08-01T13:41:59;6.88;;;1.48;;
19492;SDS011;9887;54.366;10.958;2022-08-01T13:44:29;6.10;;;1.40;;
19492;SDS011;9887;54.366;10.958;2022-08-01T13:46:57;6.47;;;1.80;;
19492;SDS011;9887;54.366;10.958;2022-08-01T13:49:26;7.00;;;1.48;;
19492;SDS011;9887;54.366;10.958;2022-08-01T13:52:03;6.55;;;1.58;;
19492;SDS011;9887;54.366;10.958;2022-08-01T13:54:33;7.38;;;1.40;;
19492;SDS011;9887;54.366;10.958;2022-08-01T13:57:00;6.95;;;1.55;;
19492;SDS011;9887;54.366;10.958;2022-08-01T13:59:30;7.13;;;1.33;;
19492;SDS011;9887;54.366;10.958;2022-08-01T14:01:58;8.05;;;1.60;;
19492;SDS011;9887;54.366;10.958;2022-08-01T14:04:26;6.82;;;1.70;;
19492;SDS011;9887;54.366;10.958;2022-08-01T14:06:54;9.65;;;1.35;;
19492;SDS011;9887;54.366;10.958;2022-08-01T14:09:24;5.30;;;1.30;;
19492;SDS011;9887;54.366;10.958;2022-08-01T14:11:57;6.88;;;1.48;;
19492;SDS011;9887;54.366;10.958;2022-08-01T14:14:25;4.80;;;1.20;;
19492;SDS011;9887;54.366;10.958;2022-08-01T14:16:54;8.48;;;1.50;;
19492;SDS011;9887;54.366;10.958;2022-08-01T14:19:22;7.93;;;1.85;;
19492;SDS011;9887;54.366;10.958;2022-08-01T14:22:04;7.47;;;1.55;;
19492;SDS011;9887;54.366;10.958;2022-08-01T14:24:33;5.68;;;1.52;;
19492;SDS011;9887;54.366;10.958;2022-08-01T14:27:04;7.97;;;1.45;;
19492;SDS011;9887;54.366;10.958;2022-08-01T14:29:31;7.60;;;1.42;;
19492;SDS011;9887;54.366;10.958;2022-08-01T14:32:21;6.93;;;1.30;;
19492;SDS011;9887;54.366;10.958;2022-08-01T14:34:54;8.82;;;1.90;;
19492;SDS011;9887;54.366;10.958;2022-08-01T14:37:22;8.90;;;1.80;;
19492;SDS011;9887;54.366;10.958;2022-08-01T14:39:56;5.85;;;1.50;;
19492;SDS011;9887;54.366;10.958;2022-08-01T14:42:24;7.72;;;1.45;;
19492;SDS011;9887;54.366;10.958;2022-08-01T14:44:52;5.32;;;1.33;;
19492;SDS011;9887;54.366;10.958;2022-08-01T14:47:21;8.75;;;2.45;;
19492;SDS011;9887;54.366;10.958;2022-08-01T14:49:49;6.95;;;1.63;;
19492;SDS011;9887;54.366;10.958;2022-08-01T14:52:18;5.43;;;1.80;;
19492;SDS011;9887;54.366;10.958;2022-08-01T14:54:46;7.50;;;1.67;;
19492;SDS011;9887;54.366;10.958;2022-08-01T14:57:14;9.73;;;1.65;;
19492;SDS011;9887;54.366;10.958;2022-08-01T14:59:44;8.38;;;1.70;;
19492;SDS011;9887;54.366;10.958;2022-08-01T15:02:13;6.38;;;1.70;;
19492;SDS011;9887;54.366;10.958;2022-08-01T15:04:44;11.60;;;1.88;;
19492;SDS011;9887;54.366;10.958;2022-08-01T15:07:12;6.57;;;2.05;;
19492;SDS011;9887;54.366;10.958;2022-08-01T15:09:40;8.45;;;1.40;;
19492;SDS011;9887;54.366;10.958;2022-08-01T15:12:09;5.00;;;1.90;;
19492;SDS011;9887;54.366;10.958;2022-08-01T15:14:37;9.35;;;2.00;;
19492;SDS011;9887;54.366;10.958;2022-08-01T15:17:18;5.88;;;1.85;;